createdAt,value
2022-08-27T00:01:26.310Z,15.30
2022-08-27T00:03:55.549Z,15.30
2022-08-27T00:06:24.367Z,15.30
2022-08-27T00:08:53.302Z,15.30
2022-08-27T00:11:22.910Z,15.20
2022-08-27T00:13:50.966Z,15.20
2022-08-27T00:16:19.543Z,15.20
2022-08-27T00:18:48.570Z,15.20
2022-08-27T00:21:17.505Z,15.10
2022-08-27T00:23:45.549Z,15.20
2022-08-27T00:26:14.332Z,15.30
2022-08-27T00:28:43.104Z,15.40
2022-08-27T00:31:12.293Z,15.30
2022-08-27T00:33:41.278Z,15.30
2022-08-27T00:36:10.390Z,15.30
2022-08-27T00:38:39.035Z,15.30
2022-08-27T00:41:10.475Z,15.20
2022-08-27T00:43:58.412Z,15.10
2022-08-27T00:46:38.966Z,15.20
2022-08-27T00:49:15.244Z,15.30
2022-08-27T00:51:44.481Z,15.30
2022-08-27T00:54:16.114Z,15.20
2022-08-27T00:56:51.720Z,15.20
2022-08-27T00:59:23.754Z,15.20
2022-08-27T01:02:10.966Z,15.20
2022-08-27T01:04:41.469Z,15.20
2022-08-27T01:07:11.119Z,15.20
2022-08-27T01:09:39.598Z,15.30
2022-08-27T01:12:07.703Z,15.40
2022-08-27T01:14:35.717Z,15.40
2022-08-27T01:17:04.773Z,15.40
2022-08-27T01:19:45.787Z,15.40
2022-08-27T01:22:51.666Z,15.50
2022-08-27T01:25:21.463Z,15.60
2022-08-27T01:27:49.348Z,15.60
2022-08-27T01:30:20.038Z,15.60
2022-08-27T01:32:48.855Z,15.50
2022-08-27T01:35:18.052Z,15.40
2022-08-27T01:37:49.689Z,15.40
2022-08-27T01:40:20.497Z,15.40
2022-08-27T01:42:51.974Z,15.40
2022-08-27T01:45:24.962Z,15.50
2022-08-27T01:47:52.711Z,15.60
2022-08-27T01:50:26.319Z,15.40
2022-08-27T01:52:55.118Z,15.60
2022-08-27T01:55:26.205Z,15.50
2022-08-27T01:57:55.236Z,15.40
2022-08-27T02:00:26.689Z,15.50
2022-08-27T02:02:55.124Z,15.50
2022-08-27T02:05:23.093Z,14.90
2022-08-27T02:07:51.302Z,15.40
2022-08-27T02:10:23.884Z,15.40
2022-08-27T02:12:53.010Z,15.40
2022-08-27T02:15:21.461Z,15.30
2022-08-27T02:17:49.557Z,15.20
2022-08-27T02:20:18.349Z,15.10
2022-08-27T02:22:46.152Z,15.20
2022-08-27T02:25:15.596Z,15.10
2022-08-27T02:27:44.554Z,15.20
2022-08-27T02:30:15.759Z,15.10
2022-08-27T02:32:47.645Z,15.10
2022-08-27T02:35:17.790Z,15.10
2022-08-27T02:37:46.016Z,15.20
2022-08-27T02:40:17.756Z,15.20
2022-08-27T02:42:45.766Z,15.20
2022-08-27T02:45:15.373Z,15.10
2022-08-27T02:47:43.566Z,15.10
2022-08-27T02:50:12.452Z,15.20
2022-08-27T02:52:40.799Z,15.20
2022-08-27T02:55:08.686Z,15.30
2022-08-27T02:57:36.690Z,15.30
2022-08-27T03:00:18.083Z,15.30
2022-08-27T03:02:46.109Z,15.30
2022-08-27T03:05:15.203Z,15.30
2022-08-27T03:07:43.472Z,15.30
2022-08-27T03:10:14.258Z,15.30
2022-08-27T03:12:42.468Z,15.30
2022-08-27T03:15:12.723Z,15.20
2022-08-27T03:17:58.715Z,15.20
2022-08-27T03:20:27.741Z,15.20
2022-08-27T03:22:55.816Z,15.30
2022-08-27T03:25:23.532Z,15.30
2022-08-27T03:27:51.659Z,15.40
2022-08-27T03:30:22.030Z,15.40
2022-08-27T03:32:50.835Z,15.40
2022-08-27T03:35:19.907Z,15.40
2022-08-27T03:37:48.308Z,15.30
2022-08-27T03:40:16.963Z,14.00
2022-08-27T03:42:44.664Z,15.20
2022-08-27T03:45:12.404Z,15.10
2022-08-27T03:47:40.782Z,15.10
2022-08-27T03:50:09.664Z,15.20
2022-08-27T03:52:37.728Z,15.30
2022-08-27T03:55:07.933Z,15.50
2022-08-27T03:57:35.544Z,15.60
2022-08-27T04:00:03.541Z,15.60
2022-08-27T04:02:31.953Z,15.70
2022-08-27T04:04:59.497Z,15.70
2022-08-27T04:07:29.767Z,15.80
2022-08-27T04:09:57.535Z,15.90
2022-08-27T04:12:26.832Z,16.10
2022-08-27T04:14:54.682Z,16.20
2022-08-27T04:17:22.273Z,16.30
2022-08-27T04:19:52.700Z,16.40
2022-08-27T04:22:21.796Z,16.50
2022-08-27T04:24:49.882Z,16.60
2022-08-27T04:27:17.483Z,16.60
2022-08-27T04:29:48.040Z,16.70
2022-08-27T04:32:16.301Z,16.70
2022-08-27T04:34:43.775Z,16.70
2022-08-27T04:37:11.646Z,16.70
2022-08-27T04:39:42.678Z,16.80
2022-08-27T04:42:12.379Z,16.90
2022-08-27T04:44:39.880Z,17.00
2022-08-27T04:47:07.837Z,17.00
2022-08-27T04:49:36.764Z,17.10
2022-08-27T04:52:04.433Z,17.20
2022-08-27T04:54:33.369Z,17.20
2022-08-27T04:57:03.006Z,17.30
2022-08-27T04:59:32.633Z,17.30
2022-08-27T05:02:01.651Z,17.40
2022-08-27T05:04:34.761Z,17.40
2022-08-27T05:07:02.435Z,17.40
2022-08-27T05:09:30.443Z,17.40
2022-08-27T05:11:57.998Z,17.50
2022-08-27T05:14:30.204Z,17.50
2022-08-27T05:16:59.367Z,17.60
2022-08-27T05:19:26.951Z,17.70
2022-08-27T05:21:54.948Z,17.80
2022-08-27T05:24:23.201Z,19.50
2022-08-27T05:26:50.994Z,18.10
2022-08-27T05:29:19.127Z,18.30
2022-08-27T05:31:48.091Z,18.40
2022-08-27T05:34:19.221Z,18.50
2022-08-27T05:36:53.384Z,18.70
2022-08-27T05:39:21.026Z,18.80
2022-08-27T05:41:52.668Z,18.90
2022-08-27T05:47:08.334Z,19.10
2022-08-27T05:49:36.182Z,19.20
2022-08-27T05:52:04.056Z,19.30
2022-08-27T05:54:31.975Z,19.40
2022-08-27T05:56:59.783Z,19.40
2022-08-27T05:59:47.272Z,19.40
2022-08-27T06:02:14.833Z,19.50
2022-08-27T06:04:42.453Z,19.50
2022-08-27T06:07:11.185Z,19.50
2022-08-27T06:09:39.303Z,19.50
2022-08-27T06:12:08.418Z,19.50
2022-08-27T06:14:37.558Z,19.50
2022-08-27T06:17:06.528Z,19.60
2022-08-27T06:19:36.636Z,19.70
2022-08-27T06:22:09.899Z,21.10
2022-08-27T06:24:43.207Z,19.80
2022-08-27T06:27:14.995Z,19.90
2022-08-27T06:29:43.193Z,20.00
2022-08-27T06:32:12.223Z,20.10
2022-08-27T06:34:40.440Z,20.20
2022-08-27T06:37:08.615Z,20.30
2022-08-27T06:39:40.534Z,20.30
2022-08-27T06:42:12.862Z,20.50
2022-08-27T06:44:41.164Z,20.60
2022-08-27T06:47:08.672Z,20.40
2022-08-27T06:49:38.822Z,20.60
2022-08-27T06:52:06.881Z,20.70
2022-08-27T06:54:36.795Z,20.90
2022-08-27T06:57:04.424Z,21.00
2022-08-27T06:59:33.042Z,21.10
2022-08-27T07:02:00.647Z,21.20
2022-08-27T07:04:32.778Z,21.30
2022-08-27T07:07:03.359Z,21.30
2022-08-27T07:09:32.800Z,21.20
2022-08-27T07:12:01.287Z,21.20
2022-08-27T07:14:33.005Z,21.20
2022-08-27T07:17:05.092Z,21.20
2022-08-27T07:19:33.961Z,21.20
2022-08-27T07:22:05.304Z,21.30
2022-08-27T07:24:33.388Z,21.20
2022-08-27T07:27:00.955Z,21.30
2022-08-27T07:29:32.181Z,21.30
2022-08-27T07:32:00.154Z,22.30
2022-08-27T07:34:28.306Z,21.50
2022-08-27T07:36:55.957Z,21.60
2022-08-27T07:39:24.344Z,21.70
2022-08-27T07:42:14.630Z,21.90
2022-08-27T07:44:42.327Z,22.00
2022-08-27T07:47:10.945Z,22.10
2022-08-27T07:49:38.467Z,22.30
2022-08-27T07:52:06.081Z,22.30
2022-08-27T07:54:33.689Z,22.30
2022-08-27T07:57:01.569Z,22.30
2022-08-27T07:59:29.276Z,22.50
2022-08-27T08:01:57.172Z,22.50
2022-08-27T08:04:26.885Z,22.50
2022-08-27T08:06:56.231Z,22.60
2022-08-27T08:09:25.176Z,22.60
2022-08-27T08:11:54.216Z,22.50
2022-08-27T08:14:22.406Z,22.40
2022-08-27T08:16:50.510Z,22.40
2022-08-27T08:19:18.664Z,22.40
2022-08-27T08:21:46.558Z,22.50
2022-08-27T08:24:14.038Z,22.50
2022-08-27T08:26:42.299Z,22.50
2022-08-27T08:29:17.673Z,22.90
2022-08-27T08:31:50.119Z,22.80
2022-08-27T08:34:20.004Z,23.00
2022-08-27T08:36:54.071Z,23.10
2022-08-27T08:39:23.782Z,23.20
2022-08-27T08:41:57.101Z,23.30
2022-08-27T08:44:32.803Z,23.30
2022-08-27T08:47:12.264Z,23.30
2022-08-27T08:49:58.809Z,23.50
2022-08-27T08:52:35.793Z,23.40
2022-08-27T08:55:13.797Z,23.50
2022-08-27T08:58:05.790Z,23.70
2022-08-27T09:00:33.765Z,23.80
2022-08-27T09:03:01.729Z,23.90
2022-08-27T09:05:30.224Z,24.10
2022-08-27T09:08:31.002Z,24.20
2022-08-27T09:11:13.360Z,24.20
2022-08-27T09:13:53.647Z,24.20
2022-08-27T09:16:21.674Z,24.10
2022-08-27T09:18:52.514Z,23.90
2022-08-27T09:21:34.024Z,23.90
2022-08-27T09:24:07.866Z,23.90
2022-08-27T09:26:39.365Z,24.00
2022-08-27T09:29:16.601Z,24.10
2022-08-27T09:31:55.785Z,24.10
2022-08-27T09:34:25.044Z,24.20
2022-08-27T09:37:22.874Z,24.30
2022-08-27T09:40:13.266Z,24.40
2022-08-27T09:42:50.785Z,24.50
2022-08-27T09:45:25.112Z,24.60
2022-08-27T09:48:07.931Z,24.70
2022-08-27T09:50:43.501Z,24.70
2022-08-27T09:53:48.168Z,24.80
2022-08-27T09:56:47.317Z,24.80
2022-08-27T09:59:28.412Z,25.00
2022-08-27T10:02:16.845Z,25.10
2022-08-27T10:04:51.904Z,25.30
2022-08-27T10:07:26.482Z,25.70
2022-08-27T10:10:16.433Z,25.90
2022-08-27T10:13:10.301Z,26.90
2022-08-27T10:15:49.578Z,26.60
2022-08-27T10:18:18.262Z,26.90
2022-08-27T10:21:05.418Z,27.30
2022-08-27T10:24:03.201Z,27.70
2022-08-27T10:27:02.996Z,27.90
2022-08-27T10:29:46.970Z,28.00
2022-08-27T10:32:35.697Z,27.80
2022-08-27T10:35:18.245Z,27.70
2022-08-27T10:38:05.373Z,27.80
2022-08-27T10:40:38.976Z,27.90
2022-08-27T10:43:06.534Z,27.90
2022-08-27T10:45:43.175Z,27.90
2022-08-27T10:48:16.650Z,27.70
2022-08-27T10:50:59.371Z,27.60
2022-08-27T10:53:45.781Z,27.70
2022-08-27T10:56:43.108Z,27.70
2022-08-27T10:59:28.700Z,27.80
2022-08-27T11:02:21.255Z,28.00
2022-08-27T11:04:58.201Z,28.40
2022-08-27T11:07:40.279Z,28.00
2022-08-27T11:10:20.877Z,27.40
2022-08-27T11:12:52.229Z,27.30
2022-08-27T11:15:28.213Z,27.10
2022-08-27T11:18:17.054Z,27.30
2022-08-27T11:21:07.445Z,26.90
2022-08-27T11:23:46.687Z,26.50
2022-08-27T11:26:14.791Z,26.50
2022-08-27T11:28:48.131Z,26.70
2022-08-27T11:31:40.791Z,27.00
2022-08-27T11:34:11.185Z,27.30
2022-08-27T11:36:45.832Z,27.60
2022-08-27T11:39:39.709Z,27.80
2022-08-27T11:42:10.428Z,28.00
2022-08-27T11:44:46.908Z,28.70
2022-08-27T11:47:26.298Z,28.10
2022-08-27T11:49:58.483Z,28.00
2022-08-27T11:52:38.247Z,27.60
2022-08-27T11:55:20.814Z,27.30
2022-08-27T11:58:02.207Z,27.40
2022-08-27T12:00:36.497Z,27.80
2022-08-27T12:03:12.160Z,28.00
2022-08-27T12:05:44.641Z,28.30
2022-08-27T12:08:30.433Z,28.50
2022-08-27T12:11:22.511Z,28.70
2022-08-27T12:14:14.131Z,28.70
2022-08-27T12:16:57.277Z,28.80
2022-08-27T12:20:06.384Z,28.00
2022-08-27T12:23:04.924Z,28.10
2022-08-27T12:25:33.259Z,28.10
2022-08-27T12:28:09.582Z,27.90
2022-08-27T12:30:50.297Z,27.90
2022-08-27T12:33:41.304Z,28.00
2022-08-27T12:36:27.558Z,27.70
2022-08-27T12:39:00.250Z,27.70
2022-08-27T12:41:44.044Z,27.60
2022-08-27T12:44:27.438Z,27.50
2022-08-27T12:47:08.955Z,27.20
2022-08-27T12:49:42.544Z,27.30
2022-08-27T12:52:26.188Z,27.20
2022-08-27T12:55:27.634Z,27.00
2022-08-27T12:58:15.666Z,27.10
2022-08-27T13:01:11.803Z,27.30
2022-08-27T13:03:43.827Z,27.30
2022-08-27T13:06:35.543Z,27.10
2022-08-27T13:09:05.981Z,26.80
2022-08-27T13:11:44.528Z,26.60
2022-08-27T13:14:15.591Z,26.40
2022-08-27T13:16:51.740Z,26.10
2022-08-27T13:19:28.611Z,25.80
2022-08-27T13:21:56.768Z,25.60
2022-08-27T13:24:47.050Z,25.40
2022-08-27T13:27:15.118Z,25.20
2022-08-27T13:29:44.118Z,25.10
2022-08-27T13:32:14.791Z,25.00
2022-08-27T13:34:42.677Z,24.90
2022-08-27T13:37:27.220Z,24.80
2022-08-27T13:39:57.684Z,25.40
2022-08-27T13:42:26.592Z,24.70
2022-08-27T13:45:02.027Z,24.70
2022-08-27T13:47:30.915Z,24.60
2022-08-27T13:50:08.835Z,24.60
2022-08-27T13:52:58.901Z,24.50
2022-08-27T13:55:27.824Z,24.40
2022-08-27T13:57:55.710Z,24.40
2022-08-27T14:00:28.508Z,24.40
2022-08-27T14:02:56.894Z,24.40
2022-08-27T14:05:24.337Z,24.30
2022-08-27T14:07:59.056Z,24.20
2022-08-27T14:10:44.367Z,24.20
2022-08-27T14:13:22.675Z,24.10
2022-08-27T14:15:54.846Z,24.10
2022-08-27T14:18:57.751Z,24.00
2022-08-27T14:21:24.660Z,24.00
2022-08-27T14:23:53.160Z,24.00
2022-08-27T14:26:21.050Z,24.00
2022-08-27T14:28:48.986Z,24.10
2022-08-27T14:31:16.854Z,24.00
2022-08-27T14:33:48.075Z,24.00
2022-08-27T14:36:18.754Z,24.00
2022-08-27T14:38:49.224Z,24.30
2022-08-27T14:41:18.748Z,23.90
2022-08-27T14:43:49.894Z,23.90
2022-08-27T14:46:31.114Z,23.90
2022-08-27T14:49:00.866Z,23.80
2022-08-27T14:51:32.713Z,23.80
2022-08-27T14:54:00.477Z,23.80
2022-08-27T14:56:28.065Z,23.80
2022-08-27T14:58:55.594Z,23.70
2022-08-27T15:01:25.392Z,23.80
2022-08-27T15:03:54.668Z,23.70
2022-08-27T15:06:23.839Z,23.70
2022-08-27T15:08:52.394Z,23.80
2022-08-27T15:11:24.141Z,23.80
2022-08-27T15:13:53.280Z,23.80
2022-08-27T15:16:47.325Z,23.80
2022-08-27T15:19:15.716Z,23.80
2022-08-27T15:21:47.928Z,23.70
2022-08-27T15:24:27.388Z,23.70
2022-08-27T15:26:59.824Z,23.70
2022-08-27T15:29:27.888Z,23.70
2022-08-27T15:31:55.655Z,23.70
2022-08-27T15:34:23.502Z,23.60
2022-08-27T15:36:51.085Z,23.60
2022-08-27T15:39:18.776Z,23.60
2022-08-27T15:42:05.202Z,23.20
2022-08-27T15:44:34.371Z,23.60
2022-08-27T15:47:02.109Z,23.50
2022-08-27T15:49:29.703Z,23.50
2022-08-27T15:51:59.648Z,23.50
2022-08-27T15:54:28.103Z,23.60
2022-08-27T15:56:55.741Z,23.50
2022-08-27T15:59:23.324Z,23.50
2022-08-27T16:01:55.073Z,23.50
2022-08-27T16:04:23.570Z,23.50
2022-08-27T16:06:51.173Z,23.50
2022-08-27T16:09:19.250Z,23.30
2022-08-27T16:11:46.904Z,23.40
2022-08-27T16:14:15.950Z,23.30
2022-08-27T16:16:47.688Z,23.30
2022-08-27T16:19:16.699Z,23.30
2022-08-27T16:21:44.496Z,23.30
2022-08-27T16:24:12.070Z,23.30
2022-08-27T16:26:39.857Z,23.30
2022-08-27T16:29:07.580Z,23.20
2022-08-27T16:31:35.308Z,23.00
2022-08-27T16:34:05.362Z,22.90
2022-08-27T16:36:37.125Z,22.80
2022-08-27T16:39:04.806Z,22.80
2022-08-27T16:41:32.492Z,22.70
2022-08-27T16:44:00.807Z,22.60
2022-08-27T16:46:28.321Z,22.50
2022-08-27T16:49:15.060Z,22.50
2022-08-27T16:51:43.692Z,22.50
2022-08-27T16:54:13.075Z,22.50
2022-08-27T16:56:40.573Z,22.40
2022-08-27T16:59:08.519Z,22.30
2022-08-27T17:01:36.679Z,22.20
2022-08-27T17:04:16.140Z,22.20
2022-08-27T17:06:45.977Z,22.20
2022-08-27T17:09:14.210Z,22.10
2022-08-27T17:11:43.043Z,22.10
2022-08-27T17:14:12.287Z,22.10
2022-08-27T17:16:41.835Z,22.80
2022-08-27T17:19:13.280Z,22.00
2022-08-27T17:21:45.770Z,22.00
2022-08-27T17:24:13.992Z,22.10
2022-08-27T17:26:41.600Z,22.00
2022-08-27T17:29:09.328Z,22.00
2022-08-27T17:31:39.172Z,22.00
2022-08-27T17:34:12.375Z,21.90
2022-08-27T17:36:39.964Z,22.10
2022-08-27T17:39:13.513Z,21.90
2022-08-27T17:41:44.014Z,21.90
2022-08-27T17:44:24.686Z,21.90
2022-08-27T17:46:54.145Z,21.90
2022-08-27T17:49:22.361Z,21.80
2022-08-27T17:51:55.767Z,21.80
2022-08-27T17:54:37.636Z,21.80
2022-08-27T17:57:17.663Z,21.80
2022-08-27T17:59:45.775Z,21.80
2022-08-27T18:02:21.435Z,21.80
2022-08-27T18:04:49.281Z,22.30
2022-08-27T18:07:17.291Z,21.70
2022-08-27T18:09:45.491Z,21.70
2022-08-27T18:12:18.087Z,21.60
2022-08-27T18:14:48.994Z,21.60
2022-08-27T18:17:16.909Z,21.60
2022-08-27T18:19:45.833Z,21.60
2022-08-27T18:22:15.289Z,21.50
2022-08-27T18:24:42.835Z,21.50
2022-08-27T18:27:10.511Z,21.40
2022-08-27T18:29:38.260Z,21.40
2022-08-27T18:32:05.940Z,21.40
2022-08-27T18:34:33.605Z,21.40
2022-08-27T18:37:01.157Z,21.40
2022-08-27T18:39:29.786Z,21.40
2022-08-27T18:42:00.589Z,21.30
2022-08-27T18:44:36.472Z,21.30
2022-08-27T18:47:04.879Z,21.30
2022-08-27T18:49:32.513Z,21.30
2022-08-27T18:52:01.029Z,21.30
2022-08-27T18:54:28.667Z,21.30
2022-08-27T18:56:56.333Z,21.30
2022-08-27T18:59:27.477Z,21.30
2022-08-27T19:01:56.386Z,21.30
2022-08-27T19:04:24.662Z,21.30
2022-08-27T19:06:52.118Z,21.30
2022-08-27T19:09:21.244Z,21.30
2022-08-27T19:11:48.721Z,21.30
2022-08-27T19:14:16.196Z,21.20
2022-08-27T19:16:47.205Z,21.20
2022-08-27T19:19:17.416Z,21.10
2022-08-27T19:21:49.286Z,21.00
2022-08-27T19:24:21.476Z,20.90
2022-08-27T19:26:50.526Z,20.90
2022-08-27T19:29:19.879Z,21.20
2022-08-27T19:31:48.154Z,20.80
2022-08-27T19:34:16.102Z,20.70
2022-08-27T19:36:44.341Z,20.60
2022-08-27T19:39:13.824Z,20.50
2022-08-27T19:41:41.950Z,20.50
2022-08-27T19:44:09.766Z,20.60
2022-08-27T19:46:38.335Z,20.60
2022-08-27T19:49:06.185Z,20.70
2022-08-27T19:51:33.735Z,20.70
2022-08-27T19:54:01.487Z,21.10
2022-08-27T19:56:29.499Z,20.60
2022-08-27T19:59:01.243Z,20.60
2022-08-27T20:01:33.654Z,20.70
2022-08-27T20:04:01.397Z,20.60
2022-08-27T20:06:29.843Z,20.60
2022-08-27T20:08:58.648Z,20.60
2022-08-27T20:11:26.386Z,20.60
2022-08-27T20:13:58.772Z,20.60
2022-08-27T20:16:26.972Z,20.60
2022-08-27T20:18:58.345Z,20.60
2022-08-27T20:21:27.728Z,20.50
2022-08-27T20:23:55.406Z,20.50
2022-08-27T20:26:24.819Z,20.50
2022-08-27T20:28:53.389Z,20.40
2022-08-27T20:31:21.030Z,20.40
2022-08-27T20:33:49.099Z,20.50
2022-08-27T20:36:16.804Z,20.50
2022-08-27T20:38:44.308Z,20.50
2022-08-27T20:41:11.987Z,20.60
2022-08-27T20:43:39.569Z,20.60
2022-08-27T20:46:07.178Z,20.60
2022-08-27T20:48:38.619Z,20.60
2022-08-27T20:51:06.547Z,20.60
2022-08-27T20:53:34.015Z,20.60
2022-08-27T20:56:01.570Z,20.60
2022-08-27T20:58:47.853Z,20.60
2022-08-27T21:01:15.670Z,20.60
2022-08-27T21:03:43.199Z,20.50
2022-08-27T21:06:10.744Z,20.30
2022-08-27T21:08:39.435Z,20.10
2022-08-27T21:11:12.883Z,20.00
2022-08-27T21:13:55.369Z,19.90
2022-08-27T21:16:24.518Z,19.90
2022-08-27T21:18:53.964Z,19.90
2022-08-27T21:21:22.326Z,19.70
2022-08-27T21:23:49.798Z,19.60
2022-08-27T21:26:17.396Z,19.50
2022-08-27T21:28:44.826Z,19.40
2022-08-27T21:31:12.369Z,19.30
2022-08-27T21:33:40.241Z,19.10
2022-08-27T21:36:11.748Z,19.00
2022-08-27T21:38:40.022Z,19.00
2022-08-27T21:41:08.129Z,19.00
2022-08-27T21:43:36.152Z,19.00
2022-08-27T21:46:04.899Z,18.90
2022-08-27T21:48:32.692Z,18.80
2022-08-27T21:51:10.433Z,18.60
2022-08-27T21:53:38.233Z,18.40
2022-08-27T21:56:05.930Z,18.30
2022-08-27T21:58:34.361Z,18.20
2022-08-27T22:01:04.993Z,18.20
2022-08-27T22:03:34.867Z,18.20
2022-08-27T22:06:04.059Z,18.10
2022-08-27T22:08:31.793Z,18.20
2022-08-27T22:10:59.407Z,18.20
2022-08-27T22:13:27.312Z,18.20
2022-08-27T22:15:55.251Z,18.10
2022-08-27T22:18:23.139Z,18.10
2022-08-27T22:20:52.258Z,18.10
2022-08-27T22:23:20.540Z,18.20
2022-08-27T22:25:49.084Z,18.20
2022-08-27T22:28:17.400Z,18.20
2022-08-27T22:30:46.276Z,18.20
2022-08-27T22:33:14.253Z,18.30
2022-08-27T22:35:41.728Z,18.40
2022-08-27T22:38:09.302Z,18.40
2022-08-27T22:40:37.815Z,18.60
2022-08-27T22:43:05.959Z,18.70
2022-08-27T22:45:34.769Z,18.80
2022-08-27T22:48:02.512Z,18.80
2022-08-27T22:50:30.083Z,18.90
2022-08-27T22:52:57.874Z,19.00
2022-08-27T22:55:25.548Z,19.10
2022-08-27T22:57:55.013Z,19.10
2022-08-27T23:00:31.460Z,19.20
2022-08-27T23:03:00.089Z,19.10
2022-08-27T23:05:27.934Z,19.10
2022-08-27T23:08:00.171Z,19.10
2022-08-27T23:10:27.965Z,19.00
2022-08-27T23:12:56.548Z,18.90
2022-08-27T23:15:27.140Z,18.90
2022-08-27T23:17:55.682Z,18.80
2022-08-27T23:20:24.522Z,18.70
2022-08-27T23:22:52.870Z,18.70
2022-08-27T23:25:43.218Z,18.70
2022-08-27T23:28:14.965Z,18.70
2022-08-27T23:30:44.544Z,18.60
2022-08-27T23:33:13.495Z,18.50
2022-08-27T23:35:44.595Z,18.50
2022-08-27T23:38:12.364Z,18.40
2022-08-27T23:40:40.371Z,18.30
2022-08-27T23:43:08.050Z,18.20
2022-08-27T23:45:40.169Z,18.20
2022-08-27T23:48:08.919Z,18.30
2022-08-27T23:50:36.964Z,18.30
2022-08-27T23:53:05.832Z,18.20
2022-08-27T23:55:34.017Z,18.20
2022-08-27T23:58:03.038Z,18.30
